Terminal Aerodrome Forecast
Issued by NWS

Home | Current Version | Previous Version | Text Only | Print | Product List | Glossary On
Versions: 1 2 3 4 5 6 7 8 9 10 11 12
000
FTUS46 KMTR 271700
TAFSJC
TAF
KSJC 271728Z 2718/2818 VRB03KT P6SM BKN200
     FM272100 31006KT P6SM BKN200
     FM280400 VRB03KT P6SM BKN200=

USA.gov is the U.S. government's official web portal to all federal, state and local government web resources and services.